createdAt,value
2023-05-22T00:02:06.365Z,12.83
2023-05-22T00:14:06.783Z,12.61
2023-05-22T00:26:07.227Z,12.52
2023-05-22T00:38:07.715Z,12.19
2023-05-22T00:50:08.184Z,12.16
2023-05-22T01:02:08.692Z,11.39
2023-05-22T01:14:09.089Z,12.08
2023-05-22T01:26:09.506Z,11.38
2023-05-22T01:38:09.977Z,12.04
2023-05-22T01:50:10.444Z,11.60
2023-05-22T02:02:10.879Z,11.82
2023-05-22T02:14:11.311Z,11.28
2023-05-22T02:26:11.807Z,11.44
2023-05-22T02:38:12.226Z,10.94
2023-05-22T02:50:12.705Z,11.02
2023-05-22T03:02:13.160Z,10.56
2023-05-22T03:14:13.573Z,10.75
2023-05-22T03:26:14.046Z,10.80
2023-05-22T03:38:14.576Z,9.96
2023-05-22T03:50:14.914Z,10.14
2023-05-22T04:02:15.439Z,9.91
2023-05-22T04:14:15.872Z,10.07
2023-05-22T04:26:16.607Z,10.54
2023-05-22T04:38:16.785Z,11.37
2023-05-22T04:50:17.229Z,11.79
2023-05-22T05:02:17.694Z,11.79
2023-05-22T05:14:18.162Z,12.23
2023-05-22T05:26:18.595Z,13.10
2023-05-22T05:38:19.031Z,13.98
2023-05-22T05:50:19.513Z,15.76
2023-05-22T06:02:20.060Z,16.35
2023-05-22T06:14:20.417Z,17.60
2023-05-22T06:26:20.872Z,18.61
2023-05-22T06:38:21.296Z,19.89
2023-05-22T06:50:21.792Z,21.69
2023-05-22T07:02:22.241Z,21.91
2023-05-22T07:14:22.691Z,20.69
2023-05-22T07:26:23.136Z,20.68
2023-05-22T07:38:23.625Z,21.57
2023-05-22T07:50:24.049Z,21.74
2023-05-22T08:02:24.532Z,21.32
2023-05-22T08:14:24.941Z,22.15
2023-05-22T08:26:25.442Z,22.08
2023-05-22T08:38:25.903Z,22.79
2023-05-22T08:50:26.313Z,23.57
2023-05-22T09:02:26.819Z,24.94
2023-05-22T09:14:27.266Z,25.47
2023-05-22T09:26:27.704Z,25.35
2023-05-22T09:38:28.147Z,26.81
2023-05-22T09:50:28.613Z,25.25
2023-05-22T10:02:29.093Z,25.14
2023-05-22T10:14:30.997Z,23.64
2023-05-22T10:26:29.978Z,24.23
2023-05-22T10:38:30.483Z,25.37
2023-05-22T10:50:30.874Z,25.06
2023-05-22T11:02:31.500Z,25.82
2023-05-22T11:14:31.812Z,26.05
2023-05-22T11:26:32.277Z,25.77
2023-05-22T11:38:32.743Z,25.56
2023-05-22T11:50:42.350Z,25.17
2023-05-22T12:02:33.721Z,26.93
2023-05-22T12:14:34.059Z,25.87
2023-05-22T12:26:34.543Z,26.12
2023-05-22T12:38:35.697Z,26.57
2023-05-22T12:50:35.450Z,24.99
2023-05-22T13:02:35.913Z,24.07
2023-05-22T13:14:36.361Z,25.57
2023-05-22T13:26:36.789Z,25.58
2023-05-22T13:38:37.244Z,24.93
2023-05-22T13:50:37.728Z,25.98
2023-05-22T14:02:38.261Z,25.41
2023-05-22T14:14:38.634Z,25.52
2023-05-22T14:26:39.088Z,25.14
2023-05-22T14:38:39.527Z,25.16
2023-05-22T14:50:40.040Z,24.72
2023-05-22T15:02:40.537Z,22.87
2023-05-22T15:14:40.884Z,21.46
2023-05-22T15:26:41.362Z,20.41
2023-05-22T15:38:41.859Z,19.47
2023-05-22T15:50:42.275Z,18.95
2023-05-22T16:02:42.814Z,18.31
2023-05-22T16:14:43.245Z,18.81
2023-05-22T16:26:43.648Z,19.33
2023-05-22T16:38:44.089Z,19.39
2023-05-22T16:50:44.509Z,19.49
2023-05-22T17:02:45.113Z,21.06
2023-05-22T17:14:45.445Z,20.60
2023-05-22T17:26:45.930Z,21.10
2023-05-22T17:38:46.349Z,21.37
2023-05-22T17:50:46.830Z,19.61
2023-05-22T18:02:47.395Z,19.23
2023-05-22T18:14:47.715Z,18.73
2023-05-22T18:26:48.200Z,17.88
2023-05-22T18:38:48.638Z,17.46
2023-05-22T18:50:49.138Z,17.11
2023-05-22T19:02:49.574Z,16.07
2023-05-22T19:14:50.010Z,15.99
2023-05-22T19:26:50.503Z,16.32
2023-05-22T19:38:53.262Z,15.70
2023-05-22T19:50:51.400Z,15.35
2023-05-22T20:02:51.869Z,15.48
2023-05-22T20:14:52.285Z,14.99
2023-05-22T20:26:52.730Z,15.20
2023-05-22T20:38:53.210Z,15.15
2023-05-22T20:50:53.612Z,14.93
2023-05-22T21:02:55.336Z,14.51
2023-05-22T21:14:54.566Z,14.62
2023-05-22T21:26:55.055Z,14.40
2023-05-22T21:38:55.485Z,14.19
2023-05-22T21:50:55.916Z,13.96
2023-05-22T22:02:56.451Z,13.92
2023-05-22T22:14:56.812Z,13.72
2023-05-22T22:26:57.271Z,13.41
2023-05-22T22:38:57.719Z,13.47
2023-05-22T22:50:58.214Z,13.25
2023-05-22T23:02:58.665Z,12.99
2023-05-22T23:14:59.070Z,13.02
2023-05-22T23:26:59.567Z,13.00
2023-05-22T23:39:00.059Z,12.43
2023-05-22T23:51:00.452Z,12.56
